sensor_id;sensor_type;location;lat;lon;timestamp;pressure;altitude;pressure_sealevel;temperature
50206;BMP280;36098;48.390;10.856;2023-07-31T00:02:16;96187.81;;;25.11
50206;BMP280;36098;48.390;10.856;2023-07-31T00:04:41;96184.94;;;25.07
50206;BMP280;36098;48.390;10.856;2023-07-31T00:07:07;96181.50;;;25.07
50206;BMP280;36098;48.390;10.856;2023-07-31T00:09:33;96182.84;;;25.04
50206;BMP280;36098;48.390;10.856;2023-07-31T00:11:58;96179.69;;;25.02
50206;BMP280;36098;48.390;10.856;2023-07-31T00:14:24;96172.28;;;25.04
50206;BMP280;36098;48.390;10.856;2023-07-31T00:16:49;96183.09;;;25.08
50206;BMP280;36098;48.390;10.856;2023-07-31T00:19:14;96180.22;;;25.04
50206;BMP280;36098;48.390;10.856;2023-07-31T00:21:39;96178.63;;;25.03
50206;BMP280;36098;48.390;10.856;2023-07-31T00:24:05;96180.22;;;25.04
50206;BMP280;36098;48.390;10.856;2023-07-31T00:26:30;96170.72;;;25.03
50206;BMP280;36098;48.390;10.856;2023-07-31T00:28:55;96179.97;;;25.01
50206;BMP280;36098;48.390;10.856;2023-07-31T00:31:20;96183.13;;;25.03
50206;BMP280;36098;48.390;10.856;2023-07-31T00:33:46;96188.69;;;25.01
50206;BMP280;36098;48.390;10.856;2023-07-31T00:36:11;96173.63;;;25.02
50206;BMP280;36098;48.390;10.856;2023-07-31T00:38:36;96169.69;;;24.99
50206;BMP280;36098;48.390;10.856;2023-07-31T00:41:01;96168.63;;;25.00
50206;BMP280;36098;48.390;10.856;2023-07-31T00:43:27;96164.69;;;24.98
50206;BMP280;36098;48.390;10.856;2023-07-31T00:45:52;96162.84;;;24.98
50206;BMP280;36098;48.390;10.856;2023-07-31T00:48:18;96162.34;;;24.96
50206;BMP280;36098;48.390;10.856;2023-07-31T00:50:43;96168.69;;;24.95
50206;BMP280;36098;48.390;10.856;2023-07-31T00:53:09;96163.09;;;24.97
50206;BMP280;36098;48.390;10.856;2023-07-31T00:55:34;96164.97;;;24.96
50206;BMP280;36098;48.390;10.856;2023-07-31T00:57:59;96175.53;;;24.96
50206;BMP280;36098;48.390;10.856;2023-07-31T01:00:25;96169.69;;;24.99
50206;BMP280;36098;48.390;10.856;2023-07-31T01:02:50;96161.25;;;24.97
50206;BMP280;36098;48.390;10.856;2023-07-31T01:05:19;96163.41;;;24.95
50206;BMP280;36098;48.390;10.856;2023-07-31T01:07:56;96160.75;;;24.95
50206;BMP280;36098;48.390;10.856;2023-07-31T01:10:27;96159.69;;;24.96
50206;BMP280;36098;48.390;10.856;2023-07-31T01:12:56;96150.19;;;24.95
50206;BMP280;36098;48.390;10.856;2023-07-31T01:15:21;96151.25;;;24.94
50206;BMP280;36098;48.390;10.856;2023-07-31T01:17:47;96152.31;;;24.93
50206;BMP280;36098;48.390;10.856;2023-07-31T01:20:17;96148.88;;;24.93
50206;BMP280;36098;48.390;10.856;2023-07-31T01:25:52;96151.03;;;24.91
50206;BMP280;36098;48.390;10.856;2023-07-31T01:28:25;96144.94;;;24.90
50206;BMP280;36098;48.390;10.856;2023-07-31T01:30:55;96142.03;;;24.92
50206;BMP280;36098;48.390;10.856;2023-07-31T01:33:21;96143.88;;;24.91
50206;BMP280;36098;48.390;10.856;2023-07-31T01:35:48;96142.28;;;24.90
50206;BMP280;36098;48.390;10.856;2023-07-31T01:38:13;96137.00;;;24.90
50206;BMP280;36098;48.390;10.856;2023-07-31T01:40:41;96144.44;;;24.88
50206;BMP280;36098;48.390;10.856;2023-07-31T01:43:07;96138.09;;;24.89
50206;BMP280;36098;48.390;10.856;2023-07-31T01:45:32;96141.00;;;24.88
50206;BMP280;36098;48.390;10.856;2023-07-31T01:47:57;96144.94;;;24.90
50206;BMP280;36098;48.390;10.856;2023-07-31T01:50:23;96138.09;;;24.89
50206;BMP280;36098;48.390;10.856;2023-07-31T01:52:48;96136.25;;;24.90
50206;BMP280;36098;48.390;10.856;2023-07-31T01:55:13;96139.66;;;24.90
50206;BMP280;36098;48.390;10.856;2023-07-31T01:57:38;96136.50;;;24.88
50206;BMP280;36098;48.390;10.856;2023-07-31T02:00:04;96133.34;;;24.86
50206;BMP280;36098;48.390;10.856;2023-07-31T02:02:31;96134.94;;;24.87
50206;BMP280;36098;48.390;10.856;2023-07-31T02:04:56;96132.28;;;24.87
50206;BMP280;36098;48.390;10.856;2023-07-31T02:07:22;96133.34;;;24.86
50206;BMP280;36098;48.390;10.856;2023-07-31T02:09:47;96126.25;;;24.87
50206;BMP280;36098;48.390;10.856;2023-07-31T02:12:13;96120.16;;;24.86
50206;BMP280;36098;48.390;10.856;2023-07-31T02:14:39;96113.31;;;24.85
50206;BMP280;36098;48.390;10.856;2023-07-31T02:17:05;96115.69;;;24.87
50206;BMP280;36098;48.390;10.856;2023-07-31T02:19:30;96114.09;;;24.86
50206;BMP280;36098;48.390;10.856;2023-07-31T02:21:56;96107.25;;;24.85
50206;BMP280;36098;48.390;10.856;2023-07-31T02:24:21;96108.03;;;24.85
50206;BMP280;36098;48.390;10.856;2023-07-31T02:26:46;96105.38;;;24.85
50206;BMP280;36098;48.390;10.856;2023-07-31T02:29:12;96087.97;;;24.84
50206;BMP280;36098;48.390;10.856;2023-07-31T02:31:37;96098.53;;;24.84
50206;BMP280;36098;48.390;10.856;2023-07-31T02:34:02;96099.31;;;24.85
50206;BMP280;36098;48.390;10.856;2023-07-31T02:36:27;96097.72;;;24.84
50206;BMP280;36098;48.390;10.856;2023-07-31T02:38:53;96094.31;;;24.83
50206;BMP280;36098;48.390;10.856;2023-07-31T02:41:18;96102.22;;;24.83
50206;BMP280;36098;48.390;10.856;2023-07-31T02:43:43;96097.72;;;24.84
50206;BMP280;36098;48.390;10.856;2023-07-31T02:46:09;96100.34;;;24.84
50206;BMP280;36098;48.390;10.856;2023-07-31T02:48:34;96091.66;;;24.83
50206;BMP280;36098;48.390;10.856;2023-07-31T02:50:59;96087.97;;;24.84
50206;BMP280;36098;48.390;10.856;2023-07-31T02:53:25;96085.59;;;24.83
50206;BMP280;36098;48.390;10.856;2023-07-31T02:55:50;96084.00;;;24.82
50206;BMP280;36098;48.390;10.856;2023-07-31T02:58:15;96082.94;;;24.83
50206;BMP280;36098;48.390;10.856;2023-07-31T03:00:44;96077.66;;;24.83
50206;BMP280;36098;48.390;10.856;2023-07-31T03:03:10;96078.72;;;24.82
50206;BMP280;36098;48.390;10.856;2023-07-31T03:05:35;96075.59;;;24.80
50206;BMP280;36098;48.390;10.856;2023-07-31T03:08:01;96080.59;;;24.81
50206;BMP280;36098;48.390;10.856;2023-07-31T03:10:26;96080.09;;;24.79
50206;BMP280;36098;48.390;10.856;2023-07-31T03:12:52;96080.09;;;24.79
50206;BMP280;36098;48.390;10.856;2023-07-31T03:15:17;96093.00;;;24.81
50206;BMP280;36098;48.390;10.856;2023-07-31T03:17:42;96076.38;;;24.80
50206;BMP280;36098;48.390;10.856;2023-07-31T03:20:08;96091.44;;;24.80
50206;BMP280;36098;48.390;10.856;2023-07-31T03:22:33;96081.66;;;24.80
50206;BMP280;36098;48.390;10.856;2023-07-31T03:25:00;96081.66;;;24.80
50206;BMP280;36098;48.390;10.856;2023-07-31T03:27:25;96089.59;;;24.80
50206;BMP280;36098;48.390;10.856;2023-07-31T03:29:50;96079.59;;;24.77
50206;BMP280;36098;48.390;10.856;2023-07-31T03:32:16;96081.66;;;24.80
50206;BMP280;36098;48.390;10.856;2023-07-31T03:34:42;96089.09;;;24.78
50206;BMP280;36098;48.390;10.856;2023-07-31T03:37:07;96095.13;;;24.79
50206;BMP280;36098;48.390;10.856;2023-07-31T03:39:34;96086.72;;;24.77
50206;BMP280;36098;48.390;10.856;2023-07-31T03:41:59;96079.09;;;24.75
50206;BMP280;36098;48.390;10.856;2023-07-31T03:44:25;96088.78;;;24.80
50206;BMP280;36098;48.390;10.856;2023-07-31T03:46:50;96087.50;;;24.77
50206;BMP280;36098;48.390;10.856;2023-07-31T03:49:15;96085.13;;;24.76
50206;BMP280;36098;48.390;10.856;2023-07-31T03:51:40;96088.03;;;24.74
50206;BMP280;36098;48.390;10.856;2023-07-31T03:54:06;96083.56;;;24.75
50206;BMP280;36098;48.390;10.856;2023-07-31T03:56:33;96074.56;;;24.76
50206;BMP280;36098;48.390;10.856;2023-07-31T03:58:58;96080.09;;;24.79
50206;BMP280;36098;48.390;10.856;2023-07-31T04:01:23;96081.72;;;24.75
50206;BMP280;36098;48.390;10.856;2023-07-31T04:03:48;96087.78;;;24.76
50206;BMP280;36098;48.390;10.856;2023-07-31T04:06:14;96084.88;;;24.77
50206;BMP280;36098;48.390;10.856;2023-07-31T04:08:43;96081.72;;;24.75
50206;BMP280;36098;48.390;10.856;2023-07-31T04:11:08;96074.56;;;24.76
50206;BMP280;36098;48.390;10.856;2023-07-31T04:13:33;96078.22;;;24.80
50206;BMP280;36098;48.390;10.856;2023-07-31T04:15:58;96073.25;;;24.78
50206;BMP280;36098;48.390;10.856;2023-07-31T04:18:25;96071.88;;;24.81
50206;BMP280;36098;48.390;10.856;2023-07-31T04:20:50;96063.69;;;24.82
50206;BMP280;36098;48.390;10.856;2023-07-31T04:23:15;96071.88;;;24.81
50206;BMP280;36098;48.390;10.856;2023-07-31T04:25:40;96067.66;;;24.80
50206;BMP280;36098;48.390;10.856;2023-07-31T04:28:06;96057.91;;;24.80
50206;BMP280;36098;48.390;10.856;2023-07-31T04:30:31;96064.25;;;24.79
50206;BMP280;36098;48.390;10.856;2023-07-31T04:32:56;96059.97;;;24.83
50206;BMP280;36098;48.390;10.856;2023-07-31T04:35:21;96058.84;;;24.89
50206;BMP280;36098;48.390;10.856;2023-07-31T04:37:47;96066.78;;;24.89
50206;BMP280;36098;48.390;10.856;2023-07-31T04:40:14;96059.84;;;24.93
50206;BMP280;36098;48.390;10.856;2023-07-31T04:42:39;96061.44;;;24.94
50206;BMP280;36098;48.390;10.856;2023-07-31T04:45:05;96061.72;;;24.93
50206;BMP280;36098;48.390;10.856;2023-07-31T04:47:30;96060.09;;;24.97
50206;BMP280;36098;48.390;10.856;2023-07-31T04:49:56;96057.16;;;24.98
50206;BMP280;36098;48.390;10.856;2023-07-31T04:52:21;96058.81;;;24.94
50206;BMP280;36098;48.390;10.856;2023-07-31T04:54:46;96067.50;;;24.95
50206;BMP280;36098;48.390;10.856;2023-07-31T04:57:11;96054.28;;;24.95
50206;BMP280;36098;48.390;10.856;2023-07-31T04:59:36;96067.28;;;24.91
50206;BMP280;36098;48.390;10.856;2023-07-31T05:02:02;96061.81;;;25.06
50206;BMP280;36098;48.390;10.856;2023-07-31T05:04:27;96055.25;;;25.04
50206;BMP280;36098;48.390;10.856;2023-07-31T05:06:53;96062.78;;;25.15
50206;BMP280;36098;48.390;10.856;2023-07-31T05:09:18;96056.88;;;25.00
50206;BMP280;36098;48.390;10.856;2023-07-31T05:11:43;96066.72;;;24.94
50206;BMP280;36098;48.390;10.856;2023-07-31T05:14:09;96066.16;;;24.97
50206;BMP280;36098;48.390;10.856;2023-07-31T05:16:34;96060.31;;;25.00
50206;BMP280;36098;48.390;10.856;2023-07-31T05:18:59;96061.97;;;24.91
50206;BMP280;36098;48.390;10.856;2023-07-31T05:21:24;96070.09;;;25.00
50206;BMP280;36098;48.390;10.856;2023-07-31T05:23:50;96068.19;;;25.05
50206;BMP280;36098;48.390;10.856;2023-07-31T05:26:15;96078.06;;;24.95
50206;BMP280;36098;48.390;10.856;2023-07-31T05:28:40;96072.00;;;24.94
50206;BMP280;36098;48.390;10.856;2023-07-31T05:31:05;96072.00;;;24.94
50206;BMP280;36098;48.390;10.856;2023-07-31T05:33:32;96084.16;;;24.95
50206;BMP280;36098;48.390;10.856;2023-07-31T05:35:57;96078.75;;;25.05
50206;BMP280;36098;48.390;10.856;2023-07-31T05:38:22;96076.16;;;25.00
50206;BMP280;36098;48.390;10.856;2023-07-31T05:40:48;96075.59;;;25.03
50206;BMP280;36098;48.390;10.856;2023-07-31T05:43:13;96075.59;;;25.03
50206;BMP280;36098;48.390;10.856;2023-07-31T05:45:39;96071.44;;;24.97
50206;BMP280;36098;48.390;10.856;2023-07-31T05:48:05;96071.44;;;24.97
50206;BMP280;36098;48.390;10.856;2023-07-31T05:50:30;96068.44;;;25.04
50206;BMP280;36098;48.390;10.856;2023-07-31T05:52:56;96074.03;;;25.02
50206;BMP280;36098;48.390;10.856;2023-07-31T05:55:21;96067.94;;;25.02
50206;BMP280;36098;48.390;10.856;2023-07-31T05:57:46;96069.88;;;24.96
50206;BMP280;36098;48.390;10.856;2023-07-31T06:00:12;96060.66;;;24.94
50206;BMP280;36098;48.390;10.856;2023-07-31T06:02:38;96060.66;;;24.94
50206;BMP280;36098;48.390;10.856;2023-07-31T06:05:04;96061.97;;;24.91
50206;BMP280;36098;48.390;10.856;2023-07-31T06:07:31;96063.84;;;24.91
50206;BMP280;36098;48.390;10.856;2023-07-31T06:09:56;96061.72;;;24.93
50206;BMP280;36098;48.390;10.856;2023-07-31T06:12:22;96060.38;;;24.95
50206;BMP280;36098;48.390;10.856;2023-07-31T06:14:48;96060.09;;;24.97
50206;BMP280;36098;48.390;10.856;2023-07-31T06:17:13;96053.53;;;24.94
50206;BMP280;36098;48.390;10.856;2023-07-31T06:19:38;96056.69;;;24.91
50206;BMP280;36098;48.390;10.856;2023-07-31T06:22:04;96051.25;;;24.83
50206;BMP280;36098;48.390;10.856;2023-07-31T06:24:29;96041.34;;;24.93
50206;BMP280;36098;48.390;10.856;2023-07-31T06:26:54;96036.13;;;25.12
50206;BMP280;36098;48.390;10.856;2023-07-31T06:29:20;96049.03;;;25.18
50206;BMP280;36098;48.390;10.856;2023-07-31T06:31:45;96049.41;;;25.07
50206;BMP280;36098;48.390;10.856;2023-07-31T06:34:11;96048.38;;;25.03
50206;BMP280;36098;48.390;10.856;2023-07-31T06:36:36;96055.72;;;25.11
50206;BMP280;36098;48.390;10.856;2023-07-31T06:39:01;96052.09;;;25.02
50206;BMP280;36098;48.390;10.856;2023-07-31T06:41:26;96058.81;;;24.94
50206;BMP280;36098;48.390;10.856;2023-07-31T06:43:52;96051.41;;;24.91
50206;BMP280;36098;48.390;10.856;2023-07-31T06:46:17;96052.22;;;24.92
50206;BMP280;36098;48.390;10.856;2023-07-31T06:48:42;96049.09;;;24.90
50206;BMP280;36098;48.390;10.856;2023-07-31T06:51:07;96048.84;;;24.86
50206;BMP280;36098;48.390;10.856;2023-07-31T06:53:33;96054.56;;;24.93
50206;BMP280;36098;48.390;10.856;2023-07-31T06:55:58;96059.16;;;24.83
50206;BMP280;36098;48.390;10.856;2023-07-31T06:58:23;96058.41;;;24.82
50206;BMP280;36098;48.390;10.856;2023-07-31T07:00:48;96054.28;;;24.71
50206;BMP280;36098;48.390;10.856;2023-07-31T07:03:19;96057.16;;;24.75
50206;BMP280;36098;48.390;10.856;2023-07-31T07:05:45;96065.75;;;24.85
50206;BMP280;36098;48.390;10.856;2023-07-31T07:08:11;96053.34;;;24.86
50206;BMP280;36098;48.390;10.856;2023-07-31T07:10:37;96052.56;;;24.85
50206;BMP280;36098;48.390;10.856;2023-07-31T07:13:02;96050.47;;;24.82
50206;BMP280;36098;48.390;10.856;2023-07-31T07:15:27;96051.53;;;24.81
50206;BMP280;36098;48.390;10.856;2023-07-31T07:17:53;96046.25;;;24.81
50206;BMP280;36098;48.390;10.856;2023-07-31T07:20:19;96043.63;;;24.81
50206;BMP280;36098;48.390;10.856;2023-07-31T07:22:45;96039.69;;;24.79
50206;BMP280;36098;48.390;10.856;2023-07-31T07:25:10;96044.47;;;24.77
50206;BMP280;36098;48.390;10.856;2023-07-31T07:27:36;96044.75;;;24.75
50206;BMP280;36098;48.390;10.856;2023-07-31T07:30:01;96039.75;;;24.74
50206;BMP280;36098;48.390;10.856;2023-07-31T07:32:26;96035.22;;;24.74
50206;BMP280;36098;48.390;10.856;2023-07-31T07:34:52;96037.84;;;24.79
50206;BMP280;36098;48.390;10.856;2023-07-31T07:37:17;96034.69;;;24.77
50206;BMP280;36098;48.390;10.856;2023-07-31T07:39:42;96041.56;;;24.78
50206;BMP280;36098;48.390;10.856;2023-07-31T07:42:08;96033.38;;;24.75
50206;BMP280;36098;48.390;10.856;2023-07-31T07:44:33;96035.75;;;24.76
50206;BMP280;36098;48.390;10.856;2023-07-31T07:46:58;96034.41;;;24.79
50206;BMP280;36098;48.390;10.856;2023-07-31T07:49:24;96043.31;;;24.83
50206;BMP280;36098;48.390;10.856;2023-07-31T07:51:49;96039.41;;;24.80
50206;BMP280;36098;48.390;10.856;2023-07-31T07:54:15;96041.03;;;24.76
50206;BMP280;36098;48.390;10.856;2023-07-31T07:56:42;96037.03;;;24.79
50206;BMP280;36098;48.390;10.856;2023-07-31T07:59:07;96043.91;;;24.80
50206;BMP280;36098;48.390;10.856;2023-07-31T08:01:45;96043.13;;;24.79
50206;BMP280;36098;48.390;10.856;2023-07-31T08:04:11;96037.84;;;24.79
50206;BMP280;36098;48.390;10.856;2023-07-31T08:06:40;96037.84;;;24.79
50206;BMP280;36098;48.390;10.856;2023-07-31T08:09:06;96041.56;;;24.73
50206;BMP280;36098;48.390;10.856;2023-07-31T08:11:37;96044.78;;;24.70
50206;BMP280;36098;48.390;10.856;2023-07-31T08:14:04;96039.50;;;24.70
50206;BMP280;36098;48.390;10.856;2023-07-31T08:16:32;96048.50;;;24.69
50206;BMP280;36098;48.390;10.856;2023-07-31T08:19:01;96045.59;;;24.71
50206;BMP280;36098;48.390;10.856;2023-07-31T08:21:26;96051.63;;;24.71
50206;BMP280;36098;48.390;10.856;2023-07-31T08:23:52;96055.84;;;24.72
50206;BMP280;36098;48.390;10.856;2023-07-31T08:26:18;96049.00;;;24.71
50206;BMP280;36098;48.390;10.856;2023-07-31T08:28:49;96046.84;;;24.73
50206;BMP280;36098;48.390;10.856;2023-07-31T08:31:18;96050.31;;;24.74
50206;BMP280;36098;48.390;10.856;2023-07-31T08:33:44;96050.56;;;24.72
50206;BMP280;36098;48.390;10.856;2023-07-31T08:36:17;96047.09;;;24.77
50206;BMP280;36098;48.390;10.856;2023-07-31T08:38:45;96039.13;;;24.82
50206;BMP280;36098;48.390;10.856;2023-07-31T08:41:18;96043.63;;;24.81
50206;BMP280;36098;48.390;10.856;2023-07-31T08:44:10;96044.13;;;24.83
50206;BMP280;36098;48.390;10.856;2023-07-31T08:46:38;96035.63;;;24.86
50206;BMP280;36098;48.390;10.856;2023-07-31T08:49:09;96033.50;;;24.88
50206;BMP280;36098;48.390;10.856;2023-07-31T08:51:38;96028.50;;;24.87
50206;BMP280;36098;48.390;10.856;2023-07-31T08:54:04;96019.47;;;24.93
50206;BMP280;36098;48.390;10.856;2023-07-31T08:56:32;96023.44;;;24.90
50206;BMP280;36098;48.390;10.856;2023-07-31T08:58:59;96018.84;;;25.24
50206;BMP280;36098;48.390;10.856;2023-07-31T09:01:33;96025.34;;;25.08
50206;BMP280;36098;48.390;10.856;2023-07-31T09:04:06;96025.91;;;25.05
50206;BMP280;36098;48.390;10.856;2023-07-31T09:06:40;96026.59;;;24.92
50206;BMP280;36098;48.390;10.856;2023-07-31T09:09:09;96027.63;;;24.96
50206;BMP280;36098;48.390;10.856;2023-07-31T09:11:35;96020.19;;;24.98
50206;BMP280;36098;48.390;10.856;2023-07-31T09:14:04;96021.53;;;24.96
50206;BMP280;36098;48.390;10.856;2023-07-31T09:16:34;96017.25;;;25.00
50206;BMP280;36098;48.390;10.856;2023-07-31T09:19:02;96014.69;;;24.95
50206;BMP280;36098;48.390;10.856;2023-07-31T09:21:35;96013.66;;;25.14
50206;BMP280;36098;48.390;10.856;2023-07-31T09:24:25;96016.81;;;24.93
50206;BMP280;36098;48.390;10.856;2023-07-31T09:26:54;96012.88;;;24.90
50206;BMP280;36098;48.390;10.856;2023-07-31T09:29:24;96018.41;;;25.12
50206;BMP280;36098;48.390;10.856;2023-07-31T09:31:55;96009.06;;;25.01
50206;BMP280;36098;48.390;10.856;2023-07-31T09:34:29;96006.91;;;25.03
50206;BMP280;36098;48.390;10.856;2023-07-31T09:37:13;95993.56;;;25.13
50206;BMP280;36098;48.390;10.856;2023-07-31T09:39:46;95987.25;;;25.14
50206;BMP280;36098;48.390;10.856;2023-07-31T09:42:12;95990.00;;;25.04
50206;BMP280;36098;48.390;10.856;2023-07-31T09:44:41;95985.84;;;24.98
50206;BMP280;36098;48.390;10.856;2023-07-31T09:47:28;95977.94;;;24.98
50206;BMP280;36098;48.390;10.856;2023-07-31T09:49:55;95964.56;;;25.08
50206;BMP280;36098;48.390;10.856;2023-07-31T09:52:20;95959.72;;;24.97
50206;BMP280;36098;48.390;10.856;2023-07-31T09:54:46;95959.94;;;25.00
50206;BMP280;36098;48.390;10.856;2023-07-31T09:57:17;95964.19;;;25.19
50206;BMP280;36098;48.390;10.856;2023-07-31T09:59:42;95967.56;;;25.25
50206;BMP280;36098;48.390;10.856;2023-07-31T10:02:15;95944.16;;;25.13
50206;BMP280;36098;48.390;10.856;2023-07-31T10:04:45;95956.78;;;24.98
50206;BMP280;36098;48.390;10.856;2023-07-31T10:07:13;95953.50;;;24.88
50206;BMP280;36098;48.390;10.856;2023-07-31T10:09:44;95946.19;;;24.80
50206;BMP280;36098;48.390;10.856;2023-07-31T10:12:15;95932.88;;;24.90
50206;BMP280;36098;48.390;10.856;2023-07-31T10:14:46;95933.59;;;25.13
50206;BMP280;36098;48.390;10.856;2023-07-31T10:17:15;95930.44;;;25.35
50206;BMP280;36098;48.390;10.856;2023-07-31T10:19:42;95936.69;;;25.39
50206;BMP280;36098;48.390;10.856;2023-07-31T10:22:14;95935.75;;;25.48
50206;BMP280;36098;48.390;10.856;2023-07-31T10:24:42;95939.03;;;25.40
50206;BMP280;36098;48.390;10.856;2023-07-31T10:27:08;95934.91;;;25.53
50206;BMP280;36098;48.390;10.856;2023-07-31T10:29:36;95936.56;;;25.81
50206;BMP280;36098;48.390;10.856;2023-07-31T10:32:06;95932.34;;;25.80
50206;BMP280;36098;48.390;10.856;2023-07-31T10:34:39;95915.00;;;26.06
50206;BMP280;36098;48.390;10.856;2023-07-31T10:40:10;95908.50;;;25.85
50206;BMP280;36098;48.390;10.856;2023-07-31T10:42:53;95908.31;;;25.63
50206;BMP280;36098;48.390;10.856;2023-07-31T10:45:33;95906.94;;;25.65
50206;BMP280;36098;48.390;10.856;2023-07-31T10:48:06;95887.53;;;25.88
50206;BMP280;36098;48.390;10.856;2023-07-31T10:50:33;95896.75;;;25.91
50206;BMP280;36098;48.390;10.856;2023-07-31T10:53:02;95894.03;;;25.96
50206;BMP280;36098;48.390;10.856;2023-07-31T10:55:46;95886.91;;;25.78
50206;BMP280;36098;48.390;10.856;2023-07-31T10:58:16;95894.41;;;25.39
50206;BMP280;36098;48.390;10.856;2023-07-31T11:00:44;95890.53;;;25.13
50206;BMP280;36098;48.390;10.856;2023-07-31T11:03:25;95886.75;;;25.01
50206;BMP280;36098;48.390;10.856;2023-07-31T11:06:03;95888.47;;;24.92
50206;BMP280;36098;48.390;10.856;2023-07-31T11:08:33;95882.03;;;24.98
50206;BMP280;36098;48.390;10.856;2023-07-31T11:13:40;95866.88;;;24.66
50206;BMP280;36098;48.390;10.856;2023-07-31T11:16:09;95854.97;;;24.87
50206;BMP280;36098;48.390;10.856;2023-07-31T11:18:37;95860.09;;;24.60
50206;BMP280;36098;48.390;10.856;2023-07-31T11:21:07;95858.81;;;24.58
50206;BMP280;36098;48.390;10.856;2023-07-31T11:23:36;95839.97;;;24.83
50206;BMP280;36098;48.390;10.856;2023-07-31T11:26:02;95847.75;;;24.74
50206;BMP280;36098;48.390;10.856;2023-07-31T11:28:34;95840.97;;;24.68
50206;BMP280;36098;48.390;10.856;2023-07-31T11:31:01;95839.56;;;24.57
50206;BMP280;36098;48.390;10.856;2023-07-31T11:33:27;95834.13;;;24.67
50206;BMP280;36098;48.390;10.856;2023-07-31T11:36:04;95831.50;;;24.67
50206;BMP280;36098;48.390;10.856;2023-07-31T11:38:36;95829.66;;;24.68
50206;BMP280;36098;48.390;10.856;2023-07-31T11:41:05;95830.34;;;24.73
50206;BMP280;36098;48.390;10.856;2023-07-31T11:43:34;95836.91;;;24.76
50206;BMP280;36098;48.390;10.856;2023-07-31T11:46:01;95834.13;;;25.04
50206;BMP280;36098;48.390;10.856;2023-07-31T11:48:33;95833.78;;;25.11
50206;BMP280;36098;48.390;10.856;2023-07-31T11:51:04;95819.13;;;25.00
50206;BMP280;36098;48.390;10.856;2023-07-31T11:53:55;95824.78;;;25.12
50206;BMP280;36098;48.390;10.856;2023-07-31T11:56:25;95832.34;;;25.00
50206;BMP280;36098;48.390;10.856;2023-07-31T11:58:58;95820.78;;;24.96
50206;BMP280;36098;48.390;10.856;2023-07-31T12:01:27;95812.72;;;25.24
50206;BMP280;36098;48.390;10.856;2023-07-31T12:04:01;95821.81;;;25.18
50206;BMP280;36098;48.390;10.856;2023-07-31T12:06:36;95820.28;;;24.94
50206;BMP280;36098;48.390;10.856;2023-07-31T12:09:05;95821.09;;;24.94
50206;BMP280;36098;48.390;10.856;2023-07-31T12:11:44;95820.34;;;25.07
50206;BMP280;36098;48.390;10.856;2023-07-31T12:14:24;95823.00;;;25.07
50206;BMP280;36098;48.390;10.856;2023-07-31T12:16:58;95823.44;;;25.14
50206;BMP280;36098;48.390;10.856;2023-07-31T12:19:27;95812.06;;;25.13
50206;BMP280;36098;48.390;10.856;2023-07-31T12:21:56;95799.84;;;25.36
50206;BMP280;36098;48.390;10.856;2023-07-31T12:24:28;95814.00;;;25.08
50206;BMP280;36098;48.390;10.856;2023-07-31T12:26:53;95806.06;;;25.08
50206;BMP280;36098;48.390;10.856;2023-07-31T12:29:20;95813.88;;;25.18
50206;BMP280;36098;48.390;10.856;2023-07-31T12:31:46;95813.41;;;25.11
50206;BMP280;36098;48.390;10.856;2023-07-31T12:34:16;95809.59;;;25.22
50206;BMP280;36098;48.390;10.856;2023-07-31T12:36:46;95792.28;;;25.11
50206;BMP280;36098;48.390;10.856;2023-07-31T12:39:15;95794.25;;;25.06
50206;BMP280;36098;48.390;10.856;2023-07-31T12:41:44;95806.38;;;25.07
50206;BMP280;36098;48.390;10.856;2023-07-31T12:44:13;95789.03;;;25.19
50206;BMP280;36098;48.390;10.856;2023-07-31T12:46:39;95784.22;;;25.21
50206;BMP280;36098;48.390;10.856;2023-07-31T12:49:07;95787.78;;;25.30
50206;BMP280;36098;48.390;10.856;2023-07-31T12:51:35;95785.94;;;25.30
50206;BMP280;36098;48.390;10.856;2023-07-31T12:54:03;95777.69;;;25.32
50206;BMP280;36098;48.390;10.856;2023-07-31T12:56:29;95768.13;;;25.36
50206;BMP280;36098;48.390;10.856;2023-07-31T12:58:57;95765.19;;;25.37
50206;BMP280;36098;48.390;10.856;2023-07-31T13:01:25;95763.47;;;25.60
50206;BMP280;36098;48.390;10.856;2023-07-31T13:03:53;95757.81;;;25.80
50206;BMP280;36098;48.390;10.856;2023-07-31T13:06:18;95746.53;;;25.74
50206;BMP280;36098;48.390;10.856;2023-07-31T13:08:43;95746.22;;;25.49
50206;BMP280;36098;48.390;10.856;2023-07-31T13:11:08;95733.09;;;25.44
50206;BMP280;36098;48.390;10.856;2023-07-31T13:13:34;95733.38;;;25.42
50206;BMP280;36098;48.390;10.856;2023-07-31T13:15:59;95735.84;;;25.39
50206;BMP280;36098;48.390;10.856;2023-07-31T13:18:24;95734.25;;;25.38
50206;BMP280;36098;48.390;10.856;2023-07-31T13:20:50;95728.97;;;25.38
50206;BMP280;36098;48.390;10.856;2023-07-31T13:23:15;95726.63;;;25.36
50206;BMP280;36098;48.390;10.856;2023-07-31T13:25:40;95725.75;;;25.41
50206;BMP280;36098;48.390;10.856;2023-07-31T13:28:06;95726.81;;;25.40
50206;BMP280;36098;48.390;10.856;2023-07-31T13:30:31;95718.69;;;25.36
50206;BMP280;36098;48.390;10.856;2023-07-31T13:32:56;95719.16;;;25.38
50206;BMP280;36098;48.390;10.856;2023-07-31T13:35:21;95716.63;;;25.47
50206;BMP280;36098;48.390;10.856;2023-07-31T13:37:47;95730.34;;;25.49
50206;BMP280;36098;48.390;10.856;2023-07-31T13:40:12;95713.72;;;25.48
50206;BMP280;36098;48.390;10.856;2023-07-31T13:42:37;95713.03;;;25.43
50206;BMP280;36098;48.390;10.856;2023-07-31T13:45:03;95713.13;;;25.51
50206;BMP280;36098;48.390;10.856;2023-07-31T13:47:28;95716.53;;;25.52
50206;BMP280;36098;48.390;10.856;2023-07-31T13:49:54;95715.06;;;25.46
50206;BMP280;36098;48.390;10.856;2023-07-31T13:52:19;95715.56;;;25.48
50206;BMP280;36098;48.390;10.856;2023-07-31T13:54:44;95712.75;;;25.44
50206;BMP280;36098;48.390;10.856;2023-07-31T13:57:09;95711.94;;;25.44
50206;BMP280;36098;48.390;10.856;2023-07-31T13:59:35;95710.28;;;25.48
50206;BMP280;36098;48.390;10.856;2023-07-31T14:02:01;95711.56;;;25.91
50206;BMP280;36098;48.390;10.856;2023-07-31T14:04:26;95703.16;;;25.75
50206;BMP280;36098;48.390;10.856;2023-07-31T14:06:51;95706.47;;;25.81